sensor_id;sensor_type;location;lat;lon;timestamp;temperature;humidity
490;DHT22;231;48.120;11.576;2022-10-17T00:00:29;15.40;40.00
490;DHT22;231;48.120;11.576;2022-10-17T00:02:56;15.20;40.50
490;DHT22;231;48.120;11.576;2022-10-17T00:05:23;15.20;41.60
490;DHT22;231;48.120;11.576;2022-10-17T00:07:50;15.10;41.50
490;DHT22;231;48.120;11.576;2022-10-17T00:10:18;15.20;41.60
490;DHT22;231;48.120;11.576;2022-10-17T00:12:47;15.20;41.60
490;DHT22;231;48.120;11.576;2022-10-17T00:15:14;15.20;41.40
490;DHT22;231;48.120;11.576;2022-10-17T00:17:42;15.10;41.60
490;DHT22;231;48.120;11.576;2022-10-17T00:20:09;15.20;41.40
490;DHT22;231;48.120;11.576;2022-10-17T00:22:36;15.20;41.20
490;DHT22;231;48.120;11.576;2022-10-17T00:25:04;15.20;41.00
490;DHT22;231;48.120;11.576;2022-10-17T00:27:34;15.20;40.90
490;DHT22;231;48.120;11.576;2022-10-17T00:30:03;15.20;40.60
490;DHT22;231;48.120;11.576;2022-10-17T00:32:30;15.20;40.50
490;DHT22;231;48.120;11.576;2022-10-17T00:34:57;15.20;40.50
490;DHT22;231;48.120;11.576;2022-10-17T00:37:24;15.10;40.30
490;DHT22;231;48.120;11.576;2022-10-17T00:39:52;15.10;40.20
490;DHT22;231;48.120;11.576;2022-10-17T00:42:19;15.20;40.20
490;DHT22;231;48.120;11.576;2022-10-17T00:45:17;15.20;40.30
490;DHT22;231;48.120;11.576;2022-10-17T00:47:47;15.10;40.00
490;DHT22;231;48.120;11.576;2022-10-17T00:50:14;15.00;41.00
490;DHT22;231;48.120;11.576;2022-10-17T00:52:42;14.90;41.80
490;DHT22;231;48.120;11.576;2022-10-17T00:55:12;14.90;41.70
490;DHT22;231;48.120;11.576;2022-10-17T00:57:40;14.80;41.10
490;DHT22;231;48.120;11.576;2022-10-17T01:00:09;14.80;41.50
490;DHT22;231;48.120;11.576;2022-10-17T01:02:38;14.70;41.70
490;DHT22;231;48.120;11.576;2022-10-17T01:05:06;14.60;42.90
490;DHT22;231;48.120;11.576;2022-10-17T01:07:34;14.60;43.90
490;DHT22;231;48.120;11.576;2022-10-17T01:10:01;14.60;43.90
490;DHT22;231;48.120;11.576;2022-10-17T01:12:32;14.60;43.90
490;DHT22;231;48.120;11.576;2022-10-17T01:15:11;14.70;43.30
490;DHT22;231;48.120;11.576;2022-10-17T01:17:50;14.70;42.50
490;DHT22;231;48.120;11.576;2022-10-17T01:26:43;14.70;42.00
490;DHT22;231;48.120;11.576;2022-10-17T01:32:26;14.70;41.10
490;DHT22;231;48.120;11.576;2022-10-17T01:34:58;14.60;41.20
490;DHT22;231;48.120;11.576;2022-10-17T01:37:32;14.60;41.20
490;DHT22;231;48.120;11.576;2022-10-17T01:40:04;14.70;41.60
490;DHT22;231;48.120;11.576;2022-10-17T01:42:36;14.70;40.40
490;DHT22;231;48.120;11.576;2022-10-17T01:45:09;14.70;40.00
490;DHT22;231;48.120;11.576;2022-10-17T01:47:40;14.70;39.70
490;DHT22;231;48.120;11.576;2022-10-17T01:50:11;14.70;39.10
490;DHT22;231;48.120;11.576;2022-10-17T01:52:43;14.70;38.90
490;DHT22;231;48.120;11.576;2022-10-17T01:55:15;14.70;38.50
490;DHT22;231;48.120;11.576;2022-10-17T01:57:47;14.70;38.40
490;DHT22;231;48.120;11.576;2022-10-17T02:00:19;14.70;38.40
490;DHT22;231;48.120;11.576;2022-10-17T02:02:52;14.60;37.90
490;DHT22;231;48.120;11.576;2022-10-17T02:05:23;14.70;38.50
490;DHT22;231;48.120;11.576;2022-10-17T02:07:50;14.60;37.80
490;DHT22;231;48.120;11.576;2022-10-17T02:10:28;14.50;37.90
490;DHT22;231;48.120;11.576;2022-10-17T02:13:01;14.50;38.30
490;DHT22;231;48.120;11.576;2022-10-17T02:15:54;14.30;39.40
490;DHT22;231;48.120;11.576;2022-10-17T02:18:43;14.20;40.80
490;DHT22;231;48.120;11.576;2022-10-17T02:21:17;14.20;41.50
490;DHT22;231;48.120;11.576;2022-10-17T02:23:50;14.20;40.90
490;DHT22;231;48.120;11.576;2022-10-17T02:26:20;14.20;40.60
490;DHT22;231;48.120;11.576;2022-10-17T02:28:58;14.20;40.30
490;DHT22;231;48.120;11.576;2022-10-17T02:31:32;14.10;40.30
490;DHT22;231;48.120;11.576;2022-10-17T02:34:05;14.20;40.20
490;DHT22;231;48.120;11.576;2022-10-17T02:36:39;14.20;39.80
490;DHT22;231;48.120;11.576;2022-10-17T02:39:11;14.20;39.50
490;DHT22;231;48.120;11.576;2022-10-17T02:41:39;14.20;39.20
490;DHT22;231;48.120;11.576;2022-10-17T02:44:07;14.20;39.20
490;DHT22;231;48.120;11.576;2022-10-17T02:46:36;14.20;39.00
490;DHT22;231;48.120;11.576;2022-10-17T02:49:09;14.10;38.50
490;DHT22;231;48.120;11.576;2022-10-17T02:51:43;14.10;38.60
490;DHT22;231;48.120;11.576;2022-10-17T02:54:16;14.10;38.60
490;DHT22;231;48.120;11.576;2022-10-17T02:56:47;14.10;38.70
490;DHT22;231;48.120;11.576;2022-10-17T02:59:18;14.00;38.80
490;DHT22;231;48.120;11.576;2022-10-17T03:01:47;14.10;39.00
490;DHT22;231;48.120;11.576;2022-10-17T03:04:15;14.00;38.70
490;DHT22;231;48.120;11.576;2022-10-17T03:06:44;14.00;39.00
490;DHT22;231;48.120;11.576;2022-10-17T03:09:11;13.90;39.20
490;DHT22;231;48.120;11.576;2022-10-17T03:11:38;13.80;40.20
490;DHT22;231;48.120;11.576;2022-10-17T03:14:06;13.80;40.40
490;DHT22;231;48.120;11.576;2022-10-17T03:16:33;13.70;41.10
490;DHT22;231;48.120;11.576;2022-10-17T03:19:00;13.70;41.00
490;DHT22;231;48.120;11.576;2022-10-17T03:21:28;13.60;41.30
490;DHT22;231;48.120;11.576;2022-10-17T03:23:55;13.60;42.30
490;DHT22;231;48.120;11.576;2022-10-17T03:26:23;13.60;41.70
490;DHT22;231;48.120;11.576;2022-10-17T03:28:50;13.40;41.80
490;DHT22;231;48.120;11.576;2022-10-17T03:31:17;13.40;42.80
490;DHT22;231;48.120;11.576;2022-10-17T03:33:43;13.40;43.20
490;DHT22;231;48.120;11.576;2022-10-17T03:36:13;13.50;43.20
490;DHT22;231;48.120;11.576;2022-10-17T03:38:42;13.60;42.90
490;DHT22;231;48.120;11.576;2022-10-17T03:41:09;13.50;42.90
490;DHT22;231;48.120;11.576;2022-10-17T03:43:36;13.50;42.90
490;DHT22;231;48.120;11.576;2022-10-17T03:46:04;13.60;42.80
490;DHT22;231;48.120;11.576;2022-10-17T03:48:31;13.60;42.00
490;DHT22;231;48.120;11.576;2022-10-17T03:50:59;13.50;41.70
490;DHT22;231;48.120;11.576;2022-10-17T03:53:27;13.60;41.50
490;DHT22;231;48.120;11.576;2022-10-17T03:55:56;13.50;41.40
490;DHT22;231;48.120;11.576;2022-10-17T03:58:23;13.50;41.40
490;DHT22;231;48.120;11.576;2022-10-17T04:00:50;13.40;42.00
490;DHT22;231;48.120;11.576;2022-10-17T04:03:17;13.40;42.30
490;DHT22;231;48.120;11.576;2022-10-17T04:05:44;13.40;42.20
490;DHT22;231;48.120;11.576;2022-10-17T04:08:11;13.40;41.80
490;DHT22;231;48.120;11.576;2022-10-17T04:10:37;13.50;41.10
490;DHT22;231;48.120;11.576;2022-10-17T04:13:06;13.40;40.70
490;DHT22;231;48.120;11.576;2022-10-17T04:15:33;13.30;41.10
490;DHT22;231;48.120;11.576;2022-10-17T04:17:59;13.20;42.10
490;DHT22;231;48.120;11.576;2022-10-17T04:20:26;13.20;42.60
490;DHT22;231;48.120;11.576;2022-10-17T04:22:53;13.30;42.70
490;DHT22;231;48.120;11.576;2022-10-17T04:25:20;13.30;42.60
490;DHT22;231;48.120;11.576;2022-10-17T04:27:47;13.20;42.60
490;DHT22;231;48.120;11.576;2022-10-17T04:30:16;13.20;42.50
490;DHT22;231;48.120;11.576;2022-10-17T04:32:43;13.20;43.00
490;DHT22;231;48.120;11.576;2022-10-17T04:35:09;13.20;43.20
490;DHT22;231;48.120;11.576;2022-10-17T04:37:36;13.30;42.90
490;DHT22;231;48.120;11.576;2022-10-17T04:40:04;13.30;42.70
490;DHT22;231;48.120;11.576;2022-10-17T04:42:31;13.30;42.70
490;DHT22;231;48.120;11.576;2022-10-17T04:44:58;13.30;42.70
490;DHT22;231;48.120;11.576;2022-10-17T04:47:26;13.40;42.30
490;DHT22;231;48.120;11.576;2022-10-17T04:49:53;13.30;41.70
490;DHT22;231;48.120;11.576;2022-10-17T04:52:20;13.20;42.40
490;DHT22;231;48.120;11.576;2022-10-17T04:54:47;13.10;42.60
490;DHT22;231;48.120;11.576;2022-10-17T04:57:14;13.10;43.10
490;DHT22;231;48.120;11.576;2022-10-17T04:59:41;13.10;43.50
490;DHT22;231;48.120;11.576;2022-10-17T05:02:07;13.20;42.90
490;DHT22;231;48.120;11.576;2022-10-17T05:04:36;13.20;42.20
490;DHT22;231;48.120;11.576;2022-10-17T05:07:06;13.20;41.40
490;DHT22;231;48.120;11.576;2022-10-17T05:09:33;13.10;42.40
490;DHT22;231;48.120;11.576;2022-10-17T05:12:00;13.10;43.00
490;DHT22;231;48.120;11.576;2022-10-17T05:14:27;13.00;43.30
490;DHT22;231;48.120;11.576;2022-10-17T05:16:54;13.00;43.10
490;DHT22;231;48.120;11.576;2022-10-17T05:19:21;13.00;43.90
490;DHT22;231;48.120;11.576;2022-10-17T05:21:50;13.00;43.90
490;DHT22;231;48.120;11.576;2022-10-17T05:24:17;13.10;43.50
490;DHT22;231;48.120;11.576;2022-10-17T05:26:43;13.10;42.80
490;DHT22;231;48.120;11.576;2022-10-17T05:29:10;13.10;42.80
490;DHT22;231;48.120;11.576;2022-10-17T05:31:37;13.10;42.50
490;DHT22;231;48.120;11.576;2022-10-17T05:34:04;13.10;42.50
490;DHT22;231;48.120;11.576;2022-10-17T05:36:31;13.20;42.70
490;DHT22;231;48.120;11.576;2022-10-17T05:38:59;13.10;42.20
490;DHT22;231;48.120;11.576;2022-10-17T05:41:26;13.10;42.20
490;DHT22;231;48.120;11.576;2022-10-17T05:43:53;13.10;42.50
490;DHT22;231;48.120;11.576;2022-10-17T05:46:20;13.10;42.50
490;DHT22;231;48.120;11.576;2022-10-17T05:48:47;13.10;42.50
490;DHT22;231;48.120;11.576;2022-10-17T05:51:14;13.00;42.40
490;DHT22;231;48.120;11.576;2022-10-17T05:53:41;13.00;42.90
490;DHT22;231;48.120;11.576;2022-10-17T05:56:11;13.00;44.00
490;DHT22;231;48.120;11.576;2022-10-17T05:58:40;12.90;43.70
490;DHT22;231;48.120;11.576;2022-10-17T06:01:07;13.00;44.00
490;DHT22;231;48.120;11.576;2022-10-17T06:03:34;13.10;43.10
490;DHT22;231;48.120;11.576;2022-10-17T06:06:05;13.00;42.40
490;DHT22;231;48.120;11.576;2022-10-17T06:08:32;12.90;43.10
490;DHT22;231;48.120;11.576;2022-10-17T06:10:59;12.80;44.40
490;DHT22;231;48.120;11.576;2022-10-17T06:13:28;12.90;44.20
490;DHT22;231;48.120;11.576;2022-10-17T06:15:55;12.90;44.60
490;DHT22;231;48.120;11.576;2022-10-17T06:18:23;13.00;44.20
490;DHT22;231;48.120;11.576;2022-10-17T06:20:50;13.10;43.30
490;DHT22;231;48.120;11.576;2022-10-17T06:23:17;13.10;42.50
490;DHT22;231;48.120;11.576;2022-10-17T06:25:44;13.20;42.00
490;DHT22;231;48.120;11.576;2022-10-17T06:28:11;13.20;41.50
490;DHT22;231;48.120;11.576;2022-10-17T06:30:40;13.10;41.50
490;DHT22;231;48.120;11.576;2022-10-17T06:33:07;13.10;42.50
490;DHT22;231;48.120;11.576;2022-10-17T06:35:34;13.10;42.50
490;DHT22;231;48.120;11.576;2022-10-17T06:38:02;13.20;42.60
490;DHT22;231;48.120;11.576;2022-10-17T06:40:29;13.30;41.50
490;DHT22;231;48.120;11.576;2022-10-17T06:42:56;13.40;41.00
490;DHT22;231;48.120;11.576;2022-10-17T06:45:23;13.40;40.50
490;DHT22;231;48.120;11.576;2022-10-17T06:47:51;13.40;40.10
490;DHT22;231;48.120;11.576;2022-10-17T06:50:18;13.40;40.00
490;DHT22;231;48.120;11.576;2022-10-17T06:52:45;13.40;40.10
490;DHT22;231;48.120;11.576;2022-10-17T06:55:16;13.50;40.20
490;DHT22;231;48.120;11.576;2022-10-17T06:57:42;13.50;40.20
490;DHT22;231;48.120;11.576;2022-10-17T07:00:11;13.50;39.80
490;DHT22;231;48.120;11.576;2022-10-17T07:02:37;13.60;40.80
490;DHT22;231;48.120;11.576;2022-10-17T07:05:06;13.70;40.50
490;DHT22;231;48.120;11.576;2022-10-17T07:07:33;13.80;39.80
490;DHT22;231;48.120;11.576;2022-10-17T07:10:00;13.90;39.30
490;DHT22;231;48.120;11.576;2022-10-17T07:12:28;14.00;38.80
490;DHT22;231;48.120;11.576;2022-10-17T07:14:55;14.00;38.60
490;DHT22;231;48.120;11.576;2022-10-17T07:17:23;14.10;38.10
490;DHT22;231;48.120;11.576;2022-10-17T07:19:50;14.20;37.30
490;DHT22;231;48.120;11.576;2022-10-17T07:22:18;14.30;37.00
490;DHT22;231;48.120;11.576;2022-10-17T07:24:45;14.40;36.60
490;DHT22;231;48.120;11.576;2022-10-17T07:27:12;14.50;36.30
490;DHT22;231;48.120;11.576;2022-10-17T07:29:40;14.50;35.70
490;DHT22;231;48.120;11.576;2022-10-17T07:32:07;14.60;34.70
490;DHT22;231;48.120;11.576;2022-10-17T07:34:34;14.70;32.80
490;DHT22;231;48.120;11.576;2022-10-17T07:37:01;14.80;33.00
490;DHT22;231;48.120;11.576;2022-10-17T07:39:32;14.80;34.10
490;DHT22;231;48.120;11.576;2022-10-17T07:42:01;14.90;34.80
490;DHT22;231;48.120;11.576;2022-10-17T07:44:28;14.90;34.10
490;DHT22;231;48.120;11.576;2022-10-17T07:46:55;15.00;32.70
490;DHT22;231;48.120;11.576;2022-10-17T07:49:21;15.10;31.10
490;DHT22;231;48.120;11.576;2022-10-17T07:51:48;15.10;30.30
490;DHT22;231;48.120;11.576;2022-10-17T07:54:15;15.20;30.00
490;DHT22;231;48.120;11.576;2022-10-17T07:56:44;15.30;30.00
490;DHT22;231;48.120;11.576;2022-10-17T07:59:15;15.40;29.80
490;DHT22;231;48.120;11.576;2022-10-17T08:01:42;15.60;29.60
490;DHT22;231;48.120;11.576;2022-10-17T08:04:09;15.80;28.80
490;DHT22;231;48.120;11.576;2022-10-17T08:06:36;16.40;29.10
490;DHT22;231;48.120;11.576;2022-10-17T08:09:03;17.50;26.80
490;DHT22;231;48.120;11.576;2022-10-17T08:11:30;18.70;22.70
490;DHT22;231;48.120;11.576;2022-10-17T08:13:58;19.90;16.00
490;DHT22;231;48.120;11.576;2022-10-17T08:16:25;21.30;14.50
490;DHT22;231;48.120;11.576;2022-10-17T08:18:52;22.40;10.00
490;DHT22;231;48.120;11.576;2022-10-17T08:21:19;23.60;8.40
490;DHT22;231;48.120;11.576;2022-10-17T08:23:46;24.60;5.90
490;DHT22;231;48.120;11.576;2022-10-17T08:26:17;25.50;4.20
490;DHT22;231;48.120;11.576;2022-10-17T08:28:45;26.10;2.70
490;DHT22;231;48.120;11.576;2022-10-17T08:31:15;26.80;1.10
490;DHT22;231;48.120;11.576;2022-10-17T08:33:44;27.20;1.00
490;DHT22;231;48.120;11.576;2022-10-17T08:36:13;27.30;1.00
490;DHT22;231;48.120;11.576;2022-10-17T08:38:41;27.70;1.00
490;DHT22;231;48.120;11.576;2022-10-17T08:41:13;27.90;1.00
490;DHT22;231;48.120;11.576;2022-10-17T08:43:52;27.10;1.00
490;DHT22;231;48.120;11.576;2022-10-17T08:46:29;27.30;1.00
490;DHT22;231;48.120;11.576;2022-10-17T08:48:59;27.50;1.00
490;DHT22;231;48.120;11.576;2022-10-17T08:51:30;27.60;1.00
490;DHT22;231;48.120;11.576;2022-10-17T08:54:05;27.80;1.00
490;DHT22;231;48.120;11.576;2022-10-17T08:56:41;27.70;1.00
490;DHT22;231;48.120;11.576;2022-10-17T08:59:10;26.90;1.00
490;DHT22;231;48.120;11.576;2022-10-17T09:01:46;26.50;1.00
490;DHT22;231;48.120;11.576;2022-10-17T09:04:35;26.00;1.00
490;DHT22;231;48.120;11.576;2022-10-17T09:07:09;25.40;1.00
490;DHT22;231;48.120;11.576;2022-10-17T09:09:46;24.90;1.90
490;DHT22;231;48.120;11.576;2022-10-17T09:12:19;24.20;2.80
490;DHT22;231;48.120;11.576;2022-10-17T09:15:09;23.90;4.00
490;DHT22;231;48.120;11.576;2022-10-17T09:17:46;23.60;4.60
490;DHT22;231;48.120;11.576;2022-10-17T09:20:19;23.20;4.20
490;DHT22;231;48.120;11.576;2022-10-17T09:22:51;23.00;4.60
490;DHT22;231;48.120;11.576;2022-10-17T09:25:21;22.30;5.00
490;DHT22;231;48.120;11.576;2022-10-17T09:27:50;22.20;5.80
490;DHT22;231;48.120;11.576;2022-10-17T09:30:36;22.20;6.30
490;DHT22;231;48.120;11.576;2022-10-17T09:33:11;22.10;6.30
490;DHT22;231;48.120;11.576;2022-10-17T09:35:43;22.00;6.40
490;DHT22;231;48.120;11.576;2022-10-17T09:38:16;22.00;6.20
490;DHT22;231;48.120;11.576;2022-10-17T09:40:47;22.00;6.80
490;DHT22;231;48.120;11.576;2022-10-17T09:43:15;21.80;7.20
490;DHT22;231;48.120;11.576;2022-10-17T09:45:48;21.70;7.50
490;DHT22;231;48.120;11.576;2022-10-17T09:48:23;21.70;7.90
490;DHT22;231;48.120;11.576;2022-10-17T09:50:52;21.80;7.80
490;DHT22;231;48.120;11.576;2022-10-17T09:53:22;21.70;7.40
490;DHT22;231;48.120;11.576;2022-10-17T09:55:54;21.70;7.80
490;DHT22;231;48.120;11.576;2022-10-17T09:58:22;21.60;7.60
490;DHT22;231;48.120;11.576;2022-10-17T10:00:49;21.70;7.60
490;DHT22;231;48.120;11.576;2022-10-17T10:03:18;21.70;7.90
490;DHT22;231;48.120;11.576;2022-10-17T10:06:01;21.80;7.80
490;DHT22;231;48.120;11.576;2022-10-17T10:08:33;21.60;7.00
490;DHT22;231;48.120;11.576;2022-10-17T10:11:02;21.70;7.20
490;DHT22;231;48.120;11.576;2022-10-17T10:13:31;21.70;7.80
490;DHT22;231;48.120;11.576;2022-10-17T10:16:18;21.80;7.60
490;DHT22;231;48.120;11.576;2022-10-17T10:18:46;21.70;7.30
490;DHT22;231;48.120;11.576;2022-10-17T10:21:16;21.70;6.80
490;DHT22;231;48.120;11.576;2022-10-17T10:23:45;21.70;7.10
490;DHT22;231;48.120;11.576;2022-10-17T10:26:31;21.70;7.20
490;DHT22;231;48.120;11.576;2022-10-17T10:29:00;21.60;7.10
490;DHT22;231;48.120;11.576;2022-10-17T10:31:31;21.60;7.60
490;DHT22;231;48.120;11.576;2022-10-17T10:34:00;21.60;7.50
490;DHT22;231;48.120;11.576;2022-10-17T10:36:44;21.60;7.30
490;DHT22;231;48.120;11.576;2022-10-17T10:39:34;21.70;7.50
490;DHT22;231;48.120;11.576;2022-10-17T10:42:05;21.60;6.90
490;DHT22;231;48.120;11.576;2022-10-17T10:44:33;21.60;6.90
490;DHT22;231;48.120;11.576;2022-10-17T10:47:15;21.60;7.60
490;DHT22;231;48.120;11.576;2022-10-17T10:49:44;21.70;7.00
490;DHT22;231;48.120;11.576;2022-10-17T10:52:20;21.80;7.00
490;DHT22;231;48.120;11.576;2022-10-17T10:54:54;21.80;7.00
490;DHT22;231;48.120;11.576;2022-10-17T10:57:25;21.90;6.70
490;DHT22;231;48.120;11.576;2022-10-17T11:00:35;21.90;6.30
490;DHT22;231;48.120;11.576;2022-10-17T11:03:25;22.00;6.10
490;DHT22;231;48.120;11.576;2022-10-17T11:09:55;22.00;6.00
490;DHT22;231;48.120;11.576;2022-10-17T11:15:44;21.90;5.30
490;DHT22;231;48.120;11.576;2022-10-17T11:18:21;21.90;5.70
490;DHT22;231;48.120;11.576;2022-10-17T11:20:52;22.00;5.80
490;DHT22;231;48.120;11.576;2022-10-17T11:23:27;22.20;5.70
490;DHT22;231;48.120;11.576;2022-10-17T11:26:01;22.20;4.00
490;DHT22;231;48.120;11.576;2022-10-17T11:28:37;22.20;3.90
490;DHT22;231;48.120;11.576;2022-10-17T11:31:08;22.30;3.20
490;DHT22;231;48.120;11.576;2022-10-17T11:33:43;22.40;3.30
490;DHT22;231;48.120;11.576;2022-10-17T11:36:12;22.50;3.10
490;DHT22;231;48.120;11.576;2022-10-17T11:38:44;22.50;2.60
490;DHT22;231;48.120;11.576;2022-10-17T11:41:21;22.50;3.00
490;DHT22;231;48.120;11.576;2022-10-17T11:43:52;22.40;3.00
490;DHT22;231;48.120;11.576;2022-10-17T11:46:23;22.60;3.30
490;DHT22;231;48.120;11.576;2022-10-17T11:49:02;22.70;3.40
490;DHT22;231;48.120;11.576;2022-10-17T11:51:37;22.80;2.70
490;DHT22;231;48.120;11.576;2022-10-17T11:54:11;22.90;3.40
490;DHT22;231;48.120;11.576;2022-10-17T11:56:45;22.90;2.60
490;DHT22;231;48.120;11.576;2022-10-17T11:59:47;23.10;2.90
490;DHT22;231;48.120;11.576;2022-10-17T12:02:31;23.20;2.30
490;DHT22;231;48.120;11.576;2022-10-17T12:05:08;23.20;1.80
490;DHT22;231;48.120;11.576;2022-10-17T12:07:47;23.30;1.90
490;DHT22;231;48.120;11.576;2022-10-17T12:10:28;23.40;1.80
490;DHT22;231;48.120;11.576;2022-10-17T12:13:47;23.50;1.30
490;DHT22;231;48.120;11.576;2022-10-17T12:16:44;23.70;1.60
490;DHT22;231;48.120;11.576;2022-10-17T12:19:35;23.90;1.40
490;DHT22;231;48.120;11.576;2022-10-17T12:22:05;24.00;1.00
490;DHT22;231;48.120;11.576;2022-10-17T12:24:44;24.10;1.00
490;DHT22;231;48.120;11.576;2022-10-17T12:27:22;24.20;1.00
490;DHT22;231;48.120;11.576;2022-10-17T12:29:58;24.30;1.00
490;DHT22;231;48.120;11.576;2022-10-17T12:32:25;24.50;1.00
490;DHT22;231;48.120;11.576;2022-10-17T12:34:53;24.60;1.00
490;DHT22;231;48.120;11.576;2022-10-17T12:41:04;24.80;1.00
490;DHT22;231;48.120;11.576;2022-10-17T12:43:55;24.90;1.00
490;DHT22;231;48.120;11.576;2022-10-17T12:46:45;24.90;1.00
490;DHT22;231;48.120;11.576;2022-10-17T12:52:22;24.90;1.00
490;DHT22;231;48.120;11.576;2022-10-17T12:54:54;25.00;1.00
490;DHT22;231;48.120;11.576;2022-10-17T12:57:26;25.10;1.00
490;DHT22;231;48.120;11.576;2022-10-17T12:59:56;25.10;1.00
490;DHT22;231;48.120;11.576;2022-10-17T13:02:28;25.20;1.00
490;DHT22;231;48.120;11.576;2022-10-17T13:05:04;25.30;1.00
490;DHT22;231;48.120;11.576;2022-10-17T13:07:33;25.30;1.00
490;DHT22;231;48.120;11.576;2022-10-17T13:10:01;25.40;1.00
490;DHT22;231;48.120;11.576;2022-10-17T13:12:32;25.40;1.00
490;DHT22;231;48.120;11.576;2022-10-17T13:15:24;25.40;1.00
490;DHT22;231;48.120;11.576;2022-10-17T13:17:59;25.50;1.00
490;DHT22;231;48.120;11.576;2022-10-17T13:20:29;25.50;1.00
490;DHT22;231;48.120;11.576;2022-10-17T13:22:57;25.50;1.00
490;DHT22;231;48.120;11.576;2022-10-17T13:25:25;25.50;1.00
490;DHT22;231;48.120;11.576;2022-10-17T13:28:04;25.50;1.00
490;DHT22;231;48.120;11.576;2022-10-17T13:30:34;25.40;1.00
490;DHT22;231;48.120;11.576;2022-10-17T13:33:03;25.50;1.00
490;DHT22;231;48.120;11.576;2022-10-17T13:35:42;25.50;1.00
490;DHT22;231;48.120;11.576;2022-10-17T13:38:11;25.60;1.00
490;DHT22;231;48.120;11.576;2022-10-17T13:40:41;25.60;1.00
490;DHT22;231;48.120;11.576;2022-10-17T13:43:15;25.60;1.00
490;DHT22;231;48.120;11.576;2022-10-17T13:48:58;25.50;1.00
490;DHT22;231;48.120;11.576;2022-10-17T13:57:52;25.40;1.00
490;DHT22;231;48.120;11.576;2022-10-17T14:00:20;25.30;1.00
490;DHT22;231;48.120;11.576;2022-10-17T14:02:50;25.30;1.00
490;DHT22;231;48.120;11.576;2022-10-17T14:05:19;25.20;1.00
490;DHT22;231;48.120;11.576;2022-10-17T14:07:51;25.20;1.00
490;DHT22;231;48.120;11.576;2022-10-17T14:10:21;25.20;1.00
490;DHT22;231;48.120;11.576;2022-10-17T14:12:50;25.10;1.00
490;DHT22;231;48.120;11.576;2022-10-17T14:15:17;25.10;1.00
490;DHT22;231;48.120;11.576;2022-10-17T14:17:45;25.00;1.00
490;DHT22;231;48.120;11.576;2022-10-17T14:20:21;24.90;1.00
490;DHT22;231;48.120;11.576;2022-10-17T14:22:50;24.80;1.00
490;DHT22;231;48.120;11.576;2022-10-17T14:25:28;24.70;1.00
490;DHT22;231;48.120;11.576;2022-10-17T14:28:00;24.60;1.00
490;DHT22;231;48.120;11.576;2022-10-17T14:30:34;24.60;1.00
490;DHT22;231;48.120;11.576;2022-10-17T14:33:04;24.50;1.00
490;DHT22;231;48.120;11.576;2022-10-17T14:35:33;24.40;1.00
490;DHT22;231;48.120;11.576;2022-10-17T14:38:01;24.20;1.00
490;DHT22;231;48.120;11.576;2022-10-17T14:40:31;24.20;1.00
490;DHT22;231;48.120;11.576;2022-10-17T14:43:02;24.10;1.00
490;DHT22;231;48.120;11.576;2022-10-17T14:45:32;24.10;1.00
490;DHT22;231;48.120;11.576;2022-10-17T14:48:02;24.00;1.00
490;DHT22;231;48.120;11.576;2022-10-17T14:50:31;23.90;1.00
490;DHT22;231;48.120;11.576;2022-10-17T14:53:03;23.80;1.00
490;DHT22;231;48.120;11.576;2022-10-17T14:55:32;23.80;1.00
490;DHT22;231;48.120;11.576;2022-10-17T14:58:00;23.70;1.00
490;DHT22;231;48.120;11.576;2022-10-17T15:00:27;23.70;1.00
490;DHT22;231;48.120;11.576;2022-10-17T15:02:55;23.60;1.10
490;DHT22;231;48.120;11.576;2022-10-17T15:05:22;23.50;1.30
490;DHT22;231;48.120;11.576;2022-10-17T15:07:51;23.50;1.30
490;DHT22;231;48.120;11.576;2022-10-17T15:10:32;23.40;1.90
490;DHT22;231;48.120;11.576;2022-10-17T15:12:59;23.30;2.00
490;DHT22;231;48.120;11.576;2022-10-17T15:15:27;23.20;2.20
490;DHT22;231;48.120;11.576;2022-10-17T15:17:54;23.20;2.40
490;DHT22;231;48.120;11.576;2022-10-17T15:20:21;23.10;2.60
490;DHT22;231;48.120;11.576;2022-10-17T15:22:54;23.00;2.60
490;DHT22;231;48.120;11.576;2022-10-17T15:25:21;22.90;2.90
490;DHT22;231;48.120;11.576;2022-10-17T15:27:49;22.90;3.00
490;DHT22;231;48.120;11.576;2022-10-17T15:30:19;22.80;2.40
490;DHT22;231;48.120;11.576;2022-10-17T15:32:47;22.80;2.90
490;DHT22;231;48.120;11.576;2022-10-17T15:35:14;22.70;3.00
490;DHT22;231;48.120;11.576;2022-10-17T15:37:41;22.60;3.10
490;DHT22;231;48.120;11.576;2022-10-17T15:40:13;22.50;3.60
490;DHT22;231;48.120;11.576;2022-10-17T15:42:51;22.50;3.30
490;DHT22;231;48.120;11.576;2022-10-17T15:45:19;22.40;4.70
490;DHT22;231;48.120;11.576;2022-10-17T15:47:52;22.40;4.30
490;DHT22;231;48.120;11.576;2022-10-17T16:11:20;21.80;7.30
490;DHT22;231;48.120;11.576;2022-10-17T16:24:09;21.40;8.90
490;DHT22;231;48.120;11.576;2022-10-17T17:05:17;20.30;13.40
490;DHT22;231;48.120;11.576;2022-10-17T17:07:52;20.30;13.80
490;DHT22;231;48.120;11.576;2022-10-17T17:13:58;20.20;14.70
490;DHT22;231;48.120;11.576;2022-10-17T17:16:33;20.10;15.00
490;DHT22;231;48.120;11.576;2022-10-17T17:19:17;20.00;15.80
490;DHT22;231;48.120;11.576;2022-10-17T17:21:46;19.90;16.10
490;DHT22;231;48.120;11.576;2022-10-17T17:24:30;19.80;16.90
490;DHT22;231;48.120;11.576;2022-10-17T17:30:46;19.70;16.80
490;DHT22;231;48.120;11.576;2022-10-17T17:36:21;19.60;16.80
490;DHT22;231;48.120;11.576;2022-10-17T17:36:52;19.60;17.10
490;DHT22;231;48.120;11.576;2022-10-17T17:39:19;19.30;18.00
490;DHT22;231;48.120;11.576;2022-10-17T17:45:10;19.20;18.80
490;DHT22;231;48.120;11.576;2022-10-17T17:47:42;19.20;19.40
490;DHT22;231;48.120;11.576;2022-10-17T17:50:09;19.20;19.70
490;DHT22;231;48.120;11.576;2022-10-17T17:52:37;19.10;19.90
490;DHT22;231;48.120;11.576;2022-10-17T17:55:07;19.10;20.30
490;DHT22;231;48.120;11.576;2022-10-17T17:57:34;19.10;20.50
490;DHT22;231;48.120;11.576;2022-10-17T18:00:02;19.00;21.00
490;DHT22;231;48.120;11.576;2022-10-17T18:02:29;18.90;21.20
490;DHT22;231;48.120;11.576;2022-10-17T18:04:56;19.00;21.80
490;DHT22;231;48.120;11.576;2022-10-17T18:07:23;18.90;21.80
490;DHT22;231;48.120;11.576;2022-10-17T18:09:52;18.90;21.80
490;DHT22;231;48.120;11.576;2022-10-17T18:12:21;18.80;22.00
490;DHT22;231;48.120;11.576;2022-10-17T18:14:48;18.80;22.20
490;DHT22;231;48.120;11.576;2022-10-17T18:17:15;18.80;22.80
490;DHT22;231;48.120;11.576;2022-10-17T18:19:42;18.60;23.30
490;DHT22;231;48.120;11.576;2022-10-17T18:22:09;18.60;23.80
490;DHT22;231;48.120;11.576;2022-10-17T18:24:36;18.50;24.00
490;DHT22;231;48.120;11.576;2022-10-17T18:27:05;18.50;24.40
490;DHT22;231;48.120;11.576;2022-10-17T18:29:40;18.40;24.60
490;DHT22;231;48.120;11.576;2022-10-17T18:32:10;18.30;24.80
490;DHT22;231;48.120;11.576;2022-10-17T18:34:37;18.20;25.30
490;DHT22;231;48.120;11.576;2022-10-17T18:37:06;18.20;25.80
490;DHT22;231;48.120;11.576;2022-10-17T18:39:33;18.20;25.80
490;DHT22;231;48.120;11.576;2022-10-17T18:42:00;18.20;26.40